sensor_id;sensor_type;location;lat;lon;timestamp;pressure;altitude;pressure_sealevel;temperature;humidity
43071;BME280;36278;47.952;21.714;2022-08-19T00:02:22;99918.00;;;23.36;66.29
43071;BME280;36278;47.952;21.714;2022-08-19T00:04:48;99927.16;;;23.35;66.35
43071;BME280;36278;47.952;21.714;2022-08-19T00:07:18;99923.22;;;23.31;66.56
43071;BME280;36278;47.952;21.714;2022-08-19T00:09:44;99914.69;;;23.21;66.77
43071;BME280;36278;47.952;21.714;2022-08-19T00:12:09;99927.56;;;23.26;67.13
43071;BME280;36278;47.952;21.714;2022-08-19T00:14:35;99923.66;;;23.21;66.97
43071;BME280;36278;47.952;21.714;2022-08-19T00:17:02;99927.16;;;23.15;67.66
43071;BME280;36278;47.952;21.714;2022-08-19T00:19:28;99925.28;;;23.16;67.85
43071;BME280;36278;47.952;21.714;2022-08-19T00:21:54;99929.44;;;23.12;67.95
43071;BME280;36278;47.952;21.714;2022-08-19T00:24:20;99933.38;;;23.09;68.15
43071;BME280;36278;47.952;21.714;2022-08-19T00:26:45;99921.97;;;23.01;69.11
43071;BME280;36278;47.952;21.714;2022-08-19T00:29:13;99931.53;;;23.10;68.34
43071;BME280;36278;47.952;21.714;2022-08-19T00:31:39;99918.66;;;23.05;68.94
43071;BME280;36278;47.952;21.714;2022-08-19T00:34:07;99931.94;;;23.00;69.43
43071;BME280;36278;47.952;21.714;2022-08-19T00:36:32;99929.00;;;22.95;69.95
43071;BME280;36278;47.952;21.714;2022-08-19T00:38:58;99931.50;;;22.90;70.57
43071;BME280;36278;47.952;21.714;2022-08-19T00:41:24;99932.13;;;22.85;70.61
43071;BME280;36278;47.952;21.714;2022-08-19T00:46:26;99929.59;;;22.84;70.80
43071;BME280;36278;47.952;21.714;2022-08-19T00:48:51;99935.81;;;22.78;71.31
43071;BME280;36278;47.952;21.714;2022-08-19T00:51:17;99912.72;;;22.62;71.40
43071;BME280;36278;47.952;21.714;2022-08-19T00:53:42;99936.41;;;22.66;71.52
43071;BME280;36278;47.952;21.714;2022-08-19T00:56:08;99928.91;;;22.62;71.77
43071;BME280;36278;47.952;21.714;2022-08-19T00:58:35;99939.09;;;22.60;71.61
43071;BME280;36278;47.952;21.714;2022-08-19T01:01:03;99945.09;;;22.55;71.93
43071;BME280;36278;47.952;21.714;2022-08-19T01:03:30;99945.91;;;22.49;72.26
43071;BME280;36278;47.952;21.714;2022-08-19T01:05:56;99950.88;;;22.46;72.45
43071;BME280;36278;47.952;21.714;2022-08-19T01:08:22;99951.09;;;22.44;72.76
43071;BME280;36278;47.952;21.714;2022-08-19T01:10:51;99959.19;;;22.44;72.87
43071;BME280;36278;47.952;21.714;2022-08-19T01:13:20;99956.91;;;22.41;73.08
43071;BME280;36278;47.952;21.714;2022-08-19T01:15:50;99954.16;;;22.34;73.35
43071;BME280;36278;47.952;21.714;2022-08-19T01:18:19;99947.94;;;22.34;73.26
43071;BME280;36278;47.952;21.714;2022-08-19T01:20:45;99958.50;;;22.29;73.61
43071;BME280;36278;47.952;21.714;2022-08-19T01:23:12;99957.66;;;22.28;73.72
43071;BME280;36278;47.952;21.714;2022-08-19T01:25:50;99962.47;;;22.33;73.37
43071;BME280;36278;47.952;21.714;2022-08-19T01:28:22;99950.59;;;22.27;73.88
43071;BME280;36278;47.952;21.714;2022-08-19T01:30:48;99949.31;;;22.23;73.90
43071;BME280;36278;47.952;21.714;2022-08-19T01:33:14;99961.63;;;22.32;73.58
43071;BME280;36278;47.952;21.714;2022-08-19T01:35:41;99956.03;;;22.34;73.37
43071;BME280;36278;47.952;21.714;2022-08-19T01:38:08;99955.41;;;22.32;73.63
43071;BME280;36278;47.952;21.714;2022-08-19T01:40:38;99959.94;;;22.25;73.98
43071;BME280;36278;47.952;21.714;2022-08-19T01:43:04;99953.44;;;22.13;74.81
43071;BME280;36278;47.952;21.714;2022-08-19T01:45:32;99953.34;;;22.06;74.86
43071;BME280;36278;47.952;21.714;2022-08-19T01:47:58;99950.44;;;22.01;75.65
43071;BME280;36278;47.952;21.714;2022-08-19T01:50:24;99965.13;;;21.98;75.62
43071;BME280;36278;47.952;21.714;2022-08-19T01:52:50;99960.63;;;22.05;74.95
43071;BME280;36278;47.952;21.714;2022-08-19T01:55:18;99956.53;;;22.09;74.60
43071;BME280;36278;47.952;21.714;2022-08-19T01:57:47;99956.47;;;22.03;74.99
43071;BME280;36278;47.952;21.714;2022-08-19T02:00:17;99962.13;;;22.08;74.98
43071;BME280;36278;47.952;21.714;2022-08-19T02:02:43;99965.19;;;22.05;74.94
43071;BME280;36278;47.952;21.714;2022-08-19T02:05:10;99959.13;;;21.96;75.54
43071;BME280;36278;47.952;21.714;2022-08-19T02:07:36;99962.38;;;21.85;76.16
43071;BME280;36278;47.952;21.714;2022-08-19T02:10:04;99961.75;;;21.83;76.44
43071;BME280;36278;47.952;21.714;2022-08-19T02:12:29;99949.94;;;21.84;76.34
43071;BME280;36278;47.952;21.714;2022-08-19T02:14:55;99949.06;;;21.77;76.92
43071;BME280;36278;47.952;21.714;2022-08-19T02:17:20;99945.06;;;21.73;77.02
43071;BME280;36278;47.952;21.714;2022-08-19T02:19:46;99944.03;;;21.74;76.84
43071;BME280;36278;47.952;21.714;2022-08-19T02:22:11;99941.75;;;21.71;77.08
43071;BME280;36278;47.952;21.714;2022-08-19T02:24:36;99947.75;;;21.73;77.25
43071;BME280;36278;47.952;21.714;2022-08-19T02:27:02;99938.81;;;21.66;77.56
43071;BME280;36278;47.952;21.714;2022-08-19T02:29:27;99931.75;;;21.65;77.82
43071;BME280;36278;47.952;21.714;2022-08-19T02:31:53;99934.91;;;21.68;77.55
43071;BME280;36278;47.952;21.714;2022-08-19T02:34:18;99936.47;;;21.56;78.30
43071;BME280;36278;47.952;21.714;2022-08-19T02:36:44;99931.31;;;21.61;77.83
43071;BME280;36278;47.952;21.714;2022-08-19T02:39:10;99912.97;;;21.43;78.49
43071;BME280;36278;47.952;21.714;2022-08-19T02:41:35;99925.19;;;21.46;78.79
43071;BME280;36278;47.952;21.714;2022-08-19T02:44:02;99923.91;;;21.42;79.12
43071;BME280;36278;47.952;21.714;2022-08-19T02:46:31;99921.63;;;21.39;79.42
43071;BME280;36278;47.952;21.714;2022-08-19T02:49:00;99917.00;;;21.33;79.65
43071;BME280;36278;47.952;21.714;2022-08-19T02:51:35;99919.19;;;21.22;79.80
43071;BME280;36278;47.952;21.714;2022-08-19T02:54:01;99913.34;;;21.19;80.46
43071;BME280;36278;47.952;21.714;2022-08-19T02:56:27;99908.09;;;21.11;80.97
43071;BME280;36278;47.952;21.714;2022-08-19T02:58:56;99898.03;;;20.98;81.42
43071;BME280;36278;47.952;21.714;2022-08-19T03:01:29;99903.88;;;21.02;81.87
43071;BME280;36278;47.952;21.714;2022-08-19T03:03:56;99907.53;;;20.94;82.29
43071;BME280;36278;47.952;21.714;2022-08-19T03:06:23;99908.03;;;21.04;82.00
43071;BME280;36278;47.952;21.714;2022-08-19T03:08:49;99902.84;;;21.03;82.10
43071;BME280;36278;47.952;21.714;2022-08-19T03:11:20;99906.81;;;21.07;81.40
43071;BME280;36278;47.952;21.714;2022-08-19T03:13:47;99899.34;;;21.02;81.86
43071;BME280;36278;47.952;21.714;2022-08-19T03:16:14;99900.53;;;20.99;81.79
43071;BME280;36278;47.952;21.714;2022-08-19T03:18:40;99910.88;;;20.96;82.22
43071;BME280;36278;47.952;21.714;2022-08-19T03:21:05;99911.00;;;20.88;82.35
43071;BME280;36278;47.952;21.714;2022-08-19T03:23:31;99904.91;;;20.79;82.99
43071;BME280;36278;47.952;21.714;2022-08-19T03:25:57;99905.47;;;20.75;83.30
43071;BME280;36278;47.952;21.714;2022-08-19T03:28:22;99911.25;;;20.71;83.36
43071;BME280;36278;47.952;21.714;2022-08-19T03:31:06;99913.44;;;20.61;84.08
43071;BME280;36278;47.952;21.714;2022-08-19T03:33:33;99920.59;;;20.54;84.43
43071;BME280;36278;47.952;21.714;2022-08-19T03:38:35;99934.25;;;20.53;84.78
43071;BME280;36278;47.952;21.714;2022-08-19T03:41:12;99943.41;;;20.58;84.44
43071;BME280;36278;47.952;21.714;2022-08-19T03:43:39;99949.63;;;20.59;84.71
43071;BME280;36278;47.952;21.714;2022-08-19T03:46:11;99955.59;;;20.54;85.38
43071;BME280;36278;47.952;21.714;2022-08-19T03:48:38;99959.09;;;20.55;84.98
43071;BME280;36278;47.952;21.714;2022-08-19T03:51:05;99952.63;;;20.49;86.05
43071;BME280;36278;47.952;21.714;2022-08-19T03:53:32;99961.81;;;20.55;84.89
43071;BME280;36278;47.952;21.714;2022-08-19T03:55:58;99958.53;;;20.59;85.55
43071;BME280;36278;47.952;21.714;2022-08-19T03:58:29;99949.38;;;20.54;85.66
43071;BME280;36278;47.952;21.714;2022-08-19T04:00:55;99958.91;;;20.56;85.69
43071;BME280;36278;47.952;21.714;2022-08-19T04:03:22;99954.16;;;20.58;85.75
43071;BME280;36278;47.952;21.714;2022-08-19T04:05:47;99948.22;;;20.63;85.07
43071;BME280;36278;47.952;21.714;2022-08-19T04:08:13;99945.03;;;20.74;84.20
43071;BME280;36278;47.952;21.714;2022-08-19T04:10:40;99939.44;;;20.76;83.63
43071;BME280;36278;47.952;21.714;2022-08-19T04:13:07;99941.78;;;20.79;83.63
43071;BME280;36278;47.952;21.714;2022-08-19T04:15:39;99951.31;;;20.81;83.84
43071;BME280;36278;47.952;21.714;2022-08-19T04:18:07;99958.97;;;20.78;83.91
43071;BME280;36278;47.952;21.714;2022-08-19T04:20:42;99970.09;;;20.75;83.86
43071;BME280;36278;47.952;21.714;2022-08-19T04:23:08;99987.41;;;20.87;83.51
43071;BME280;36278;47.952;21.714;2022-08-19T04:25:39;99995.50;;;20.87;83.57
43071;BME280;36278;47.952;21.714;2022-08-19T04:28:05;100004.00;;;20.90;83.73
43071;BME280;36278;47.952;21.714;2022-08-19T04:30:37;100016.84;;;20.88;84.28
43071;BME280;36278;47.952;21.714;2022-08-19T04:33:03;100011.66;;;20.87;84.37
43071;BME280;36278;47.952;21.714;2022-08-19T04:35:35;100014.66;;;20.98;83.24
43071;BME280;36278;47.952;21.714;2022-08-19T04:38:01;100024.41;;;20.99;84.08
43071;BME280;36278;47.952;21.714;2022-08-19T04:40:27;100015.56;;;21.06;84.04
43071;BME280;36278;47.952;21.714;2022-08-19T04:43:11;100014.81;;;21.12;83.23
43071;BME280;36278;47.952;21.714;2022-08-19T04:45:44;100014.69;;;21.20;82.80
43071;BME280;36278;47.952;21.714;2022-08-19T04:48:10;100015.25;;;21.15;82.80
43071;BME280;36278;47.952;21.714;2022-08-19T04:50:39;100016.56;;;21.19;82.51
43071;BME280;36278;47.952;21.714;2022-08-19T04:53:06;100018.41;;;21.19;82.94
43071;BME280;36278;47.952;21.714;2022-08-19T04:55:31;100016.78;;;21.24;82.72
43071;BME280;36278;47.952;21.714;2022-08-19T04:57:57;100009.94;;;21.22;82.67
43071;BME280;36278;47.952;21.714;2022-08-19T05:00:23;100014.41;;;21.30;82.96
43071;BME280;36278;47.952;21.714;2022-08-19T05:02:48;100018.63;;;21.39;82.28
43071;BME280;36278;47.952;21.714;2022-08-19T05:05:14;100012.00;;;21.41;82.34
43071;BME280;36278;47.952;21.714;2022-08-19T05:07:40;100003.63;;;21.51;81.22
43071;BME280;36278;47.952;21.714;2022-08-19T05:10:06;100001.25;;;21.69;80.32
43071;BME280;36278;47.952;21.714;2022-08-19T05:12:32;99997.72;;;21.69;80.54
43071;BME280;36278;47.952;21.714;2022-08-19T05:14:58;99984.09;;;21.77;79.82
43071;BME280;36278;47.952;21.714;2022-08-19T05:17:25;99978.34;;;21.87;78.87
43071;BME280;36278;47.952;21.714;2022-08-19T05:19:51;99975.66;;;21.87;78.86
43071;BME280;36278;47.952;21.714;2022-08-19T05:22:35;99998.13;;;21.94;79.05
43071;BME280;36278;47.952;21.714;2022-08-19T05:25:07;100014.16;;;22.02;78.97
43071;BME280;36278;47.952;21.714;2022-08-19T05:27:33;100006.69;;;22.04;78.43
43071;BME280;36278;47.952;21.714;2022-08-19T05:29:59;100002.03;;;22.19;78.07
43071;BME280;36278;47.952;21.714;2022-08-19T05:32:25;100002.75;;;22.34;77.01
43071;BME280;36278;47.952;21.714;2022-08-19T05:34:50;100006.91;;;22.37;77.55
43071;BME280;36278;47.952;21.714;2022-08-19T05:37:16;99999.84;;;22.36;77.11
43071;BME280;36278;47.952;21.714;2022-08-19T05:39:42;100008.84;;;22.50;76.62
43071;BME280;36278;47.952;21.714;2022-08-19T05:42:10;100012.78;;;22.54;76.46
43071;BME280;36278;47.952;21.714;2022-08-19T05:44:39;100011.56;;;22.63;75.61
43071;BME280;36278;47.952;21.714;2022-08-19T05:47:07;100010.19;;;22.80;74.98
43071;BME280;36278;47.952;21.714;2022-08-19T05:49:34;100018.34;;;22.87;75.09
43071;BME280;36278;47.952;21.714;2022-08-19T05:52:03;100012.94;;;22.87;75.41
43071;BME280;36278;47.952;21.714;2022-08-19T05:54:29;100024.81;;;22.92;74.43
43071;BME280;36278;47.952;21.714;2022-08-19T05:56:55;100026.69;;;22.99;73.70
43071;BME280;36278;47.952;21.714;2022-08-19T05:59:21;100027.38;;;23.14;73.42
43071;BME280;36278;47.952;21.714;2022-08-19T06:01:48;100025.91;;;23.25;73.10
43071;BME280;36278;47.952;21.714;2022-08-19T06:04:16;100024.88;;;23.32;72.15
43071;BME280;36278;47.952;21.714;2022-08-19T06:06:44;100020.94;;;23.41;72.06
43071;BME280;36278;47.952;21.714;2022-08-19T06:09:10;100028.84;;;23.49;72.19
43071;BME280;36278;47.952;21.714;2022-08-19T06:14:10;100020.97;;;23.74;71.47
43071;BME280;36278;47.952;21.714;2022-08-19T06:16:38;100016.63;;;23.87;70.25
43071;BME280;36278;47.952;21.714;2022-08-19T06:19:05;100021.97;;;24.00;70.64
43071;BME280;36278;47.952;21.714;2022-08-19T06:21:34;100011.38;;;24.12;69.94
43071;BME280;36278;47.952;21.714;2022-08-19T06:24:01;100006.13;;;24.10;69.76
43071;BME280;36278;47.952;21.714;2022-08-19T06:26:27;99997.16;;;24.23;69.60
43071;BME280;36278;47.952;21.714;2022-08-19T06:28:53;99991.75;;;24.29;69.41
43071;BME280;36278;47.952;21.714;2022-08-19T06:31:26;99994.03;;;24.26;69.64
43071;BME280;36278;47.952;21.714;2022-08-19T06:33:52;99994.22;;;24.44;69.15
43071;BME280;36278;47.952;21.714;2022-08-19T06:36:21;99989.78;;;24.56;68.83
43071;BME280;36278;47.952;21.714;2022-08-19T06:38:47;99995.94;;;24.77;66.83
43071;BME280;36278;47.952;21.714;2022-08-19T06:41:13;99996.28;;;24.94;66.73
43071;BME280;36278;47.952;21.714;2022-08-19T06:43:38;99999.97;;;25.06;65.75
43071;BME280;36278;47.952;21.714;2022-08-19T06:46:10;100005.56;;;25.11;65.83
43071;BME280;36278;47.952;21.714;2022-08-19T06:48:36;100008.94;;;25.06;65.66
43071;BME280;36278;47.952;21.714;2022-08-19T06:51:02;100009.91;;;25.19;65.82
43071;BME280;36278;47.952;21.714;2022-08-19T06:53:30;100018.94;;;25.37;64.78
43071;BME280;36278;47.952;21.714;2022-08-19T06:55:55;100013.63;;;25.49;64.24
43071;BME280;36278;47.952;21.714;2022-08-19T06:58:25;100016.25;;;25.62;64.10
43071;BME280;36278;47.952;21.714;2022-08-19T07:00:51;100020.34;;;25.71;64.64
43071;BME280;36278;47.952;21.714;2022-08-19T07:03:16;100024.09;;;25.70;64.07
43071;BME280;36278;47.952;21.714;2022-08-19T07:05:42;100029.81;;;25.87;63.23
43071;BME280;36278;47.952;21.714;2022-08-19T07:08:08;100019.44;;;26.03;62.84
43071;BME280;36278;47.952;21.714;2022-08-19T07:10:34;100021.09;;;26.04;63.03
43071;BME280;36278;47.952;21.714;2022-08-19T07:13:02;100011.06;;;26.04;63.00
43071;BME280;36278;47.952;21.714;2022-08-19T07:15:28;100019.00;;;26.06;62.61
43071;BME280;36278;47.952;21.714;2022-08-19T07:17:54;100029.66;;;26.25;62.65
43071;BME280;36278;47.952;21.714;2022-08-19T07:20:19;100025.00;;;26.33;61.98
43071;BME280;36278;47.952;21.714;2022-08-19T07:22:45;100016.81;;;26.39;61.76
43071;BME280;36278;47.952;21.714;2022-08-19T07:25:11;100025.38;;;26.54;61.68
43071;BME280;36278;47.952;21.714;2022-08-19T07:27:38;100026.63;;;26.70;61.88
43071;BME280;36278;47.952;21.714;2022-08-19T07:30:04;100023.53;;;26.85;60.63
43071;BME280;36278;47.952;21.714;2022-08-19T07:32:30;100019.34;;;27.01;60.13
43071;BME280;36278;47.952;21.714;2022-08-19T07:34:56;100025.69;;;27.13;59.65
43071;BME280;36278;47.952;21.714;2022-08-19T07:37:22;100028.44;;;27.25;58.86
43071;BME280;36278;47.952;21.714;2022-08-19T07:39:47;100031.63;;;27.22;58.49
43071;BME280;36278;47.952;21.714;2022-08-19T07:42:13;100025.97;;;27.35;58.75
43071;BME280;36278;47.952;21.714;2022-08-19T07:44:40;100025.53;;;27.38;57.82
43071;BME280;36278;47.952;21.714;2022-08-19T07:47:06;100031.56;;;27.52;58.17
43071;BME280;36278;47.952;21.714;2022-08-19T07:49:32;100030.63;;;27.58;57.64
43071;BME280;36278;47.952;21.714;2022-08-19T07:52:01;100038.31;;;27.49;58.26
43071;BME280;36278;47.952;21.714;2022-08-19T07:54:31;100041.50;;;27.46;58.80
43071;BME280;36278;47.952;21.714;2022-08-19T07:56:59;100035.94;;;27.53;58.22
43071;BME280;36278;47.952;21.714;2022-08-19T07:59:27;100036.78;;;27.53;58.29
43071;BME280;36278;47.952;21.714;2022-08-19T08:01:54;100031.88;;;27.74;57.96
43071;BME280;36278;47.952;21.714;2022-08-19T08:04:20;100038.16;;;27.98;57.40
43071;BME280;36278;47.952;21.714;2022-08-19T08:07:06;100033.53;;;28.10;57.12
43071;BME280;36278;47.952;21.714;2022-08-19T08:09:50;100028.66;;;28.00;57.59
43071;BME280;36278;47.952;21.714;2022-08-19T08:12:33;100024.53;;;28.09;56.50
43071;BME280;36278;47.952;21.714;2022-08-19T08:15:02;100022.03;;;28.19;55.95
43071;BME280;36278;47.952;21.714;2022-08-19T08:17:31;100028.91;;;28.45;55.49
43071;BME280;36278;47.952;21.714;2022-08-19T08:19:57;100020.59;;;28.52;55.44
43071;BME280;36278;47.952;21.714;2022-08-19T08:22:23;100024.47;;;28.56;55.80
43071;BME280;36278;47.952;21.714;2022-08-19T08:25:10;100019.59;;;28.70;55.94
43071;BME280;36278;47.952;21.714;2022-08-19T08:27:41;100022.50;;;28.92;54.68
43071;BME280;36278;47.952;21.714;2022-08-19T08:30:09;100015.59;;;29.01;54.11
43071;BME280;36278;47.952;21.714;2022-08-19T08:32:37;100028.09;;;29.14;54.21
43071;BME280;36278;47.952;21.714;2022-08-19T08:35:05;100024.06;;;29.16;54.17
43071;BME280;36278;47.952;21.714;2022-08-19T08:37:31;100025.94;;;29.16;54.22
43071;BME280;36278;47.952;21.714;2022-08-19T08:39:57;100021.56;;;29.31;52.85
43071;BME280;36278;47.952;21.714;2022-08-19T08:42:32;100019.78;;;29.37;53.33
43071;BME280;36278;47.952;21.714;2022-08-19T08:45:02;100016.06;;;29.43;53.13
43071;BME280;36278;47.952;21.714;2022-08-19T08:47:34;100015.84;;;29.62;52.55
43071;BME280;36278;47.952;21.714;2022-08-19T08:50:12;100006.66;;;29.84;51.87
43071;BME280;36278;47.952;21.714;2022-08-19T08:52:44;100005.28;;;30.04;51.60
43071;BME280;36278;47.952;21.714;2022-08-19T08:55:20;100003.69;;;30.25;51.28
43071;BME280;36278;47.952;21.714;2022-08-19T08:58:18;100000.56;;;30.38;50.54
43071;BME280;36278;47.952;21.714;2022-08-19T09:00:47;100000.66;;;30.43;50.83
43071;BME280;36278;47.952;21.714;2022-08-19T09:03:25;99996.13;;;30.54;50.10
43071;BME280;36278;47.952;21.714;2022-08-19T09:06:23;99996.66;;;30.73;49.34
43071;BME280;36278;47.952;21.714;2022-08-19T09:12:14;99989.09;;;31.07;48.90
43071;BME280;36278;47.952;21.714;2022-08-19T09:14:53;99990.47;;;31.09;49.23
43071;BME280;36278;47.952;21.714;2022-08-19T09:17:24;99990.44;;;31.31;48.92
43071;BME280;36278;47.952;21.714;2022-08-19T09:22:34;99995.34;;;31.61;46.79
43071;BME280;36278;47.952;21.714;2022-08-19T09:25:01;99992.13;;;31.74;46.45
43071;BME280;36278;47.952;21.714;2022-08-19T09:27:27;99988.72;;;31.89;46.21
43071;BME280;36278;47.952;21.714;2022-08-19T09:29:54;99982.47;;;31.62;46.36
43071;BME280;36278;47.952;21.714;2022-08-19T09:32:21;99973.59;;;31.44;45.81
43071;BME280;36278;47.952;21.714;2022-08-19T09:34:47;99983.31;;;31.62;45.48
43071;BME280;36278;47.952;21.714;2022-08-19T09:37:13;99983.19;;;31.84;45.54
43071;BME280;36278;47.952;21.714;2022-08-19T09:39:39;99981.09;;;31.96;44.79
43071;BME280;36278;47.952;21.714;2022-08-19T09:42:07;99972.66;;;32.08;45.32
43071;BME280;36278;47.952;21.714;2022-08-19T09:44:38;99965.00;;;32.10;44.28
43071;BME280;36278;47.952;21.714;2022-08-19T09:47:04;99971.22;;;32.00;44.94
43071;BME280;36278;47.952;21.714;2022-08-19T09:49:29;99975.78;;;32.27;44.82
43071;BME280;36278;47.952;21.714;2022-08-19T09:51:56;99973.66;;;32.39;44.10
43071;BME280;36278;47.952;21.714;2022-08-19T09:54:22;99974.50;;;32.50;44.13
43071;BME280;36278;47.952;21.714;2022-08-19T09:56:49;99974.97;;;32.31;42.77
43071;BME280;36278;47.952;21.714;2022-08-19T09:59:15;99977.22;;;32.34;43.06
43071;BME280;36278;47.952;21.714;2022-08-19T10:01:41;99980.81;;;32.45;43.17
43071;BME280;36278;47.952;21.714;2022-08-19T10:04:07;99977.03;;;32.61;43.16
43071;BME280;36278;47.952;21.714;2022-08-19T10:06:35;99977.31;;;32.70;43.26
43071;BME280;36278;47.952;21.714;2022-08-19T10:09:05;99970.72;;;32.61;42.83
43071;BME280;36278;47.952;21.714;2022-08-19T10:11:32;99981.72;;;32.71;42.62
43071;BME280;36278;47.952;21.714;2022-08-19T10:13:58;99970.19;;;32.74;41.90
43071;BME280;36278;47.952;21.714;2022-08-19T10:16:24;99969.03;;;32.55;42.19
43071;BME280;36278;47.952;21.714;2022-08-19T10:18:51;99966.06;;;32.67;41.95
43071;BME280;36278;47.952;21.714;2022-08-19T10:21:20;99968.19;;;32.49;41.70
43071;BME280;36278;47.952;21.714;2022-08-19T10:23:49;99963.94;;;32.21;42.54
43071;BME280;36278;47.952;21.714;2022-08-19T10:26:18;99964.59;;;32.39;43.10
43071;BME280;36278;47.952;21.714;2022-08-19T10:28:44;99954.25;;;32.61;43.52
43071;BME280;36278;47.952;21.714;2022-08-19T10:31:18;99949.88;;;32.65;42.29
43071;BME280;36278;47.952;21.714;2022-08-19T10:33:46;99947.13;;;32.65;42.12
43071;BME280;36278;47.952;21.714;2022-08-19T10:36:22;99944.34;;;32.55;41.80
43071;BME280;36278;47.952;21.714;2022-08-19T10:38:50;99947.47;;;32.84;41.53
43071;BME280;36278;47.952;21.714;2022-08-19T10:41:21;99945.31;;;32.91;41.50
43071;BME280;36278;47.952;21.714;2022-08-19T10:43:51;99943.75;;;32.38;41.77
43071;BME280;36278;47.952;21.714;2022-08-19T10:46:21;99941.06;;;32.53;41.73
43071;BME280;36278;47.952;21.714;2022-08-19T10:48:48;99934.47;;;32.49;42.78
43071;BME280;36278;47.952;21.714;2022-08-19T10:51:14;99939.47;;;32.77;40.95
43071;BME280;36278;47.952;21.714;2022-08-19T10:53:59;99922.47;;;32.70;41.87
43071;BME280;36278;47.952;21.714;2022-08-19T10:56:26;99924.44;;;32.90;40.75
43071;BME280;36278;47.952;21.714;2022-08-19T10:59:11;99916.47;;;32.88;40.58
43071;BME280;36278;47.952;21.714;2022-08-19T11:01:40;99915.13;;;33.01;40.19
43071;BME280;36278;47.952;21.714;2022-08-19T11:04:06;99916.78;;;33.17;39.72
43071;BME280;36278;47.952;21.714;2022-08-19T11:06:35;99917.88;;;33.37;39.48
43071;BME280;36278;47.952;21.714;2022-08-19T11:09:02;99911.28;;;33.38;38.87
43071;BME280;36278;47.952;21.714;2022-08-19T11:11:28;99908.22;;;33.60;38.93
43071;BME280;36278;47.952;21.714;2022-08-19T11:13:54;99907.09;;;33.76;38.44
43071;BME280;36278;47.952;21.714;2022-08-19T11:16:22;99912.03;;;33.79;38.15
43071;BME280;36278;47.952;21.714;2022-08-19T11:18:50;99919.16;;;33.85;38.03
43071;BME280;36278;47.952;21.714;2022-08-19T11:23:49;99901.81;;;34.00;36.78
43071;BME280;36278;47.952;21.714;2022-08-19T11:26:16;99904.69;;;34.29;37.45
43071;BME280;36278;47.952;21.714;2022-08-19T11:28:42;99901.59;;;34.51;36.81
43071;BME280;36278;47.952;21.714;2022-08-19T11:31:14;99889.91;;;34.69;36.17
43071;BME280;36278;47.952;21.714;2022-08-19T11:33:40;99890.69;;;34.75;36.66
43071;BME280;36278;47.952;21.714;2022-08-19T11:36:06;99896.94;;;34.91;35.97
43071;BME280;36278;47.952;21.714;2022-08-19T11:38:33;99886.44;;;34.98;35.53
43071;BME280;36278;47.952;21.714;2022-08-19T11:41:02;99888.53;;;35.11;36.45
43071;BME280;36278;47.952;21.714;2022-08-19T11:43:29;99892.16;;;35.35;35.68
43071;BME280;36278;47.952;21.714;2022-08-19T11:45:55;99886.69;;;35.59;34.57
43071;BME280;36278;47.952;21.714;2022-08-19T11:48:21;99889.13;;;35.37;35.61
43071;BME280;36278;47.952;21.714;2022-08-19T11:50:52;99893.88;;;35.60;35.44
43071;BME280;36278;47.952;21.714;2022-08-19T11:53:19;99883.56;;;35.95;34.94
43071;BME280;36278;47.952;21.714;2022-08-19T11:55:49;99870.94;;;35.89;35.17
43071;BME280;36278;47.952;21.714;2022-08-19T11:58:17;99881.66;;;36.14;34.33
43071;BME280;36278;47.952;21.714;2022-08-19T12:00:43;99873.81;;;36.45;33.65
43071;BME280;36278;47.952;21.714;2022-08-19T12:03:11;99867.31;;;36.74;33.95
43071;BME280;36278;47.952;21.714;2022-08-19T12:05:39;99865.34;;;37.26;33.65
43071;BME280;36278;47.952;21.714;2022-08-19T12:08:06;99870.50;;;37.33;32.73
43071;BME280;36278;47.952;21.714;2022-08-19T12:10:32;99864.50;;;37.85;31.98
43071;BME280;36278;47.952;21.714;2022-08-19T12:12:59;99866.13;;;38.14;31.42
43071;BME280;36278;47.952;21.714;2022-08-19T12:15:26;99871.56;;;37.78;32.68
43071;BME280;36278;47.952;21.714;2022-08-19T12:17:54;99856.19;;;37.99;31.64
43071;BME280;36278;47.952;21.714;2022-08-19T12:20:23;99872.56;;;37.96;32.00
43071;BME280;36278;47.952;21.714;2022-08-19T12:22:50;99871.34;;;38.02;31.52
43071;BME280;36278;47.952;21.714;2022-08-19T12:25:16;99863.66;;;37.44;31.94
43071;BME280;36278;47.952;21.714;2022-08-19T12:27:42;99867.81;;;35.72;34.45
43071;BME280;36278;47.952;21.714;2022-08-19T12:30:10;99877.56;;;35.64;35.16
43071;BME280;36278;47.952;21.714;2022-08-19T12:32:37;99869.53;;;35.44;34.96
43071;BME280;36278;47.952;21.714;2022-08-19T12:35:04;99861.22;;;35.15;35.75
43071;BME280;36278;47.952;21.714;2022-08-19T12:37:30;99860.44;;;35.09;35.66
43071;BME280;36278;47.952;21.714;2022-08-19T12:39:57;99861.84;;;35.06;35.22
43071;BME280;36278;47.952;21.714;2022-08-19T12:42:22;99859.59;;;35.14;35.10
43071;BME280;36278;47.952;21.714;2022-08-19T12:44:48;99857.69;;;35.09;35.37
43071;BME280;36278;47.952;21.714;2022-08-19T12:47:13;99861.06;;;35.01;35.02
43071;BME280;36278;47.952;21.714;2022-08-19T12:49:40;99854.59;;;34.81;35.66
43071;BME280;36278;47.952;21.714;2022-08-19T12:52:08;99855.47;;;34.77;35.33
43071;BME280;36278;47.952;21.714;2022-08-19T12:54:35;99847.81;;;34.69;35.11
43071;BME280;36278;47.952;21.714;2022-08-19T12:57:05;99846.09;;;34.39;37.25
43071;BME280;36278;47.952;21.714;2022-08-19T12:59:31;99828.31;;;34.21;35.91
43071;BME280;36278;47.952;21.714;2022-08-19T13:01:57;99825.00;;;34.24;35.55
43071;BME280;36278;47.952;21.714;2022-08-19T13:04:22;99821.69;;;34.27;35.28
43071;BME280;36278;47.952;21.714;2022-08-19T13:06:48;99823.06;;;34.29;35.06
43071;BME280;36278;47.952;21.714;2022-08-19T13:09:14;99830.56;;;34.14;35.84